createdAt,value
2023-02-16T00:00:19.087Z,5.70
2023-02-16T00:02:47.729Z,5.70
2023-02-16T00:05:24.964Z,3.10
2023-02-16T00:08:03.519Z,4.80
2023-02-16T00:10:36.631Z,4.90
2023-02-16T00:13:42.069Z,2.70
2023-02-16T00:16:23.084Z,2.30
2023-02-16T00:18:50.192Z,2.70
2023-02-16T00:21:18.504Z,4.80
2023-02-16T00:23:47.178Z,4.60
2023-02-16T00:26:22.961Z,1.40
2023-02-16T00:28:55.156Z,0.80
2023-02-16T00:31:28.056Z,3.80
2023-02-16T00:33:57.209Z,4.40
2023-02-16T00:36:25.714Z,2.50
2023-02-16T00:38:53.125Z,2.10
2023-02-16T00:41:41.345Z,4.60
2023-02-16T00:44:16.139Z,3.70
2023-02-16T00:46:44.725Z,2.30
2023-02-16T00:49:19.450Z,3.80
2023-02-16T00:51:48.977Z,3.00
2023-02-16T00:54:15.894Z,4.10
2023-02-16T00:56:43.008Z,5.00
2023-02-16T00:59:15.673Z,5.50
2023-02-16T01:01:42.555Z,3.20
2023-02-16T01:04:13.533Z,7.30
2023-02-16T01:06:59.250Z,6.70
2023-02-16T01:09:46.665Z,2.50
2023-02-16T01:12:16.870Z,3.50
2023-02-16T01:14:47.572Z,3.30
2023-02-16T01:17:14.957Z,5.40
2023-02-16T01:19:44.539Z,2.20
2023-02-16T01:22:11.834Z,3.80
2023-02-16T01:24:42.456Z,6.50
2023-02-16T01:27:13.286Z,1.90
2023-02-16T01:29:40.345Z,3.50
2023-02-16T01:32:11.839Z,2.70
2023-02-16T01:34:38.954Z,3.00
2023-02-16T01:37:06.072Z,3.30
2023-02-16T01:39:33.515Z,4.70
2023-02-16T01:42:25.870Z,3.70
2023-02-16T01:45:00.439Z,5.00
2023-02-16T01:47:50.056Z,5.00
2023-02-16T01:50:23.211Z,2.40
2023-02-16T01:52:55.142Z,5.40
2023-02-16T01:55:29.452Z,5.30
2023-02-16T01:57:58.782Z,5.50
2023-02-16T02:00:33.046Z,5.20
2023-02-16T02:03:20.502Z,5.30
2023-02-16T02:05:48.153Z,6.80
2023-02-16T02:08:38.430Z,3.70
2023-02-16T02:11:32.520Z,4.40
2023-02-16T02:14:11.346Z,3.50
2023-02-16T02:16:40.332Z,5.80
2023-02-16T02:19:07.223Z,4.90
2023-02-16T02:22:15.061Z,5.00
2023-02-16T02:25:08.669Z,4.20
2023-02-16T02:27:55.838Z,5.00
2023-02-16T02:30:26.070Z,5.20
2023-02-16T02:33:10.625Z,3.90
2023-02-16T02:36:09.951Z,4.80
2023-02-16T02:38:50.527Z,3.80
2023-02-16T02:41:47.438Z,5.00
2023-02-16T02:44:17.451Z,2.50
2023-02-16T02:46:46.653Z,5.10
2023-02-16T02:49:14.829Z,6.00
2023-02-16T02:51:42.958Z,5.20
2023-02-16T02:54:34.737Z,7.40
2023-02-16T02:57:29.711Z,15.00
2023-02-16T03:00:17.508Z,16.50
2023-02-16T03:02:45.213Z,16.40
2023-02-16T03:05:12.115Z,16.20
2023-02-16T03:07:47.734Z,14.80
2023-02-16T03:10:37.489Z,14.20
2023-02-16T03:13:06.897Z,18.30
2023-02-16T03:15:33.827Z,14.60
2023-02-16T03:18:19.529Z,13.10
2023-02-16T03:21:06.134Z,10.50
2023-02-16T03:23:53.149Z,11.80
2023-02-16T03:26:38.828Z,7.60
2023-02-16T03:29:18.377Z,9.20
2023-02-16T03:31:46.415Z,9.70
2023-02-16T03:34:14.384Z,9.50
2023-02-16T03:36:44.502Z,4.90
2023-02-16T03:39:13.129Z,9.00
2023-02-16T03:41:43.338Z,13.30
2023-02-16T03:44:10.337Z,11.20
2023-02-16T03:46:40.482Z,7.60
2023-02-16T03:49:07.808Z,18.30
2023-02-16T03:51:37.127Z,13.00
2023-02-16T03:54:04.084Z,16.60
2023-02-16T03:56:32.907Z,13.50
2023-02-16T03:59:00.603Z,23.70
2023-02-16T04:01:27.622Z,17.60
2023-02-16T04:03:54.730Z,16.20
2023-02-16T04:06:22.015Z,22.70
2023-02-16T04:08:50.392Z,18.00
2023-02-16T04:11:37.038Z,19.10
2023-02-16T04:14:24.320Z,18.60
2023-02-16T04:16:55.782Z,23.20
2023-02-16T04:19:25.642Z,24.50
2023-02-16T04:21:52.601Z,23.40
2023-02-16T04:24:20.403Z,19.40
2023-02-16T04:26:49.025Z,18.00
2023-02-16T04:29:16.661Z,16.20
2023-02-16T04:31:43.516Z,18.10
2023-02-16T04:34:11.540Z,15.50
2023-02-16T04:36:40.560Z,10.90
2023-02-16T04:39:07.504Z,13.60
2023-02-16T04:41:35.204Z,12.00
2023-02-16T04:44:02.819Z,16.10
2023-02-16T04:46:30.089Z,15.80
2023-02-16T04:48:58.285Z,11.40
2023-02-16T04:51:25.244Z,15.90
2023-02-16T04:53:53.163Z,12.60
2023-02-16T04:56:22.971Z,14.90
2023-02-16T04:58:55.757Z,16.10
2023-02-16T05:01:24.264Z,17.40
2023-02-16T05:03:51.656Z,15.60
2023-02-16T05:06:20.157Z,17.40
2023-02-16T05:08:48.550Z,16.80
2023-02-16T05:11:35.741Z,12.70
2023-02-16T05:14:23.835Z,13.30
2023-02-16T05:16:50.810Z,17.70
2023-02-16T05:19:21.428Z,24.40
2023-02-16T05:21:49.990Z,22.70
2023-02-16T05:24:17.773Z,17.10
2023-02-16T05:26:44.759Z,15.40
2023-02-16T05:29:13.480Z,20.60
2023-02-16T05:31:43.722Z,21.40
2023-02-16T05:34:10.878Z,26.20
2023-02-16T05:36:38.038Z,22.30
2023-02-16T05:39:05.284Z,24.90
2023-02-16T05:41:32.423Z,26.70
2023-02-16T05:44:00.914Z,30.90
2023-02-16T05:46:32.284Z,41.10
2023-02-16T05:48:59.565Z,49.40
2023-02-16T05:51:26.978Z,45.30
2023-02-16T05:53:54.099Z,45.00
2023-02-16T05:56:22.520Z,38.80
2023-02-16T05:58:50.001Z,31.20
2023-02-16T06:01:17.431Z,27.90
2023-02-16T06:03:44.599Z,20.60
2023-02-16T06:06:11.974Z,18.30
2023-02-16T06:08:39.670Z,19.90
2023-02-16T06:11:26.920Z,15.00
2023-02-16T06:13:59.024Z,14.00
2023-02-16T06:16:28.471Z,9.50
2023-02-16T06:18:58.303Z,33.90
2023-02-16T06:21:25.759Z,12.70
2023-02-16T06:23:53.635Z,10.00
2023-02-16T06:26:21.597Z,5.90
2023-02-16T06:28:48.848Z,4.90
2023-02-16T06:31:16.306Z,5.80
2023-02-16T06:33:48.238Z,7.20
2023-02-16T06:36:21.883Z,5.80
2023-02-16T06:38:56.662Z,4.50
2023-02-16T06:41:40.011Z,4.90
2023-02-16T06:44:13.821Z,9.60
2023-02-16T06:46:45.929Z,5.90
2023-02-16T06:49:18.783Z,4.60
2023-02-16T06:51:48.182Z,5.80
2023-02-16T06:54:15.801Z,5.30
2023-02-16T06:56:44.055Z,6.30
2023-02-16T06:59:12.648Z,7.10
2023-02-16T07:01:45.679Z,4.50
2023-02-16T07:04:13.280Z,7.30
2023-02-16T07:06:42.233Z,6.80
2023-02-16T07:09:13.919Z,5.30
2023-02-16T07:11:41.320Z,5.60
2023-02-16T07:14:13.527Z,7.00
2023-02-16T07:16:42.330Z,9.80
2023-02-16T07:19:09.868Z,9.20
2023-02-16T07:21:39.863Z,6.50
2023-02-16T07:25:57.208Z,15.00
2023-02-16T07:28:26.065Z,9.50
2023-02-16T07:30:53.851Z,6.80
2023-02-16T07:33:25.017Z,8.30
2023-02-16T07:35:52.331Z,7.70
2023-02-16T07:38:20.205Z,6.30
2023-02-16T07:40:47.266Z,6.30
2023-02-16T07:43:15.748Z,6.70
2023-02-16T07:45:46.045Z,8.40
2023-02-16T07:48:24.555Z,9.40
2023-02-16T07:50:51.544Z,10.10
2023-02-16T07:53:18.486Z,11.00
2023-02-16T07:55:46.774Z,12.30
2023-02-16T07:58:27.425Z,9.70
2023-02-16T08:01:10.354Z,8.70
2023-02-16T08:03:50.043Z,7.30
2023-02-16T08:06:20.162Z,8.60
2023-02-16T08:08:47.256Z,9.90
2023-02-16T08:11:20.915Z,11.00
2023-02-16T08:13:49.648Z,9.50
2023-02-16T08:16:19.547Z,9.30
2023-02-16T08:18:50.202Z,7.10
2023-02-16T08:21:20.475Z,8.20
2023-02-16T08:23:54.535Z,5.70
2023-02-16T08:26:23.368Z,11.60
2023-02-16T08:28:50.831Z,7.20
2023-02-16T08:31:25.497Z,7.90
2023-02-16T08:33:56.596Z,6.90
2023-02-16T08:36:26.021Z,6.80
2023-02-16T08:38:56.077Z,8.10
2023-02-16T08:41:38.709Z,6.20
2023-02-16T08:44:15.594Z,7.10
2023-02-16T08:46:45.533Z,8.90
2023-02-16T08:49:13.209Z,6.50
2023-02-16T08:51:44.676Z,5.40
2023-02-16T08:54:21.136Z,5.70
2023-02-16T08:56:50.644Z,6.30
2023-02-16T08:59:19.362Z,5.70
2023-02-16T09:02:33.473Z,5.60
2023-02-16T09:05:00.783Z,3.20
2023-02-16T09:11:55.715Z,9.60
2023-02-16T09:14:23.828Z,6.10
2023-02-16T09:16:52.573Z,7.50
2023-02-16T09:19:20.652Z,4.40
2023-02-16T09:21:50.215Z,3.10
2023-02-16T09:24:22.506Z,2.70
2023-02-16T09:27:07.463Z,4.00
2023-02-16T09:29:40.041Z,2.80
2023-02-16T09:32:08.834Z,3.20
2023-02-16T09:34:51.987Z,4.70
2023-02-16T09:38:38.840Z,2.00
2023-02-16T09:41:07.943Z,2.80
2023-02-16T09:43:48.687Z,2.50
2023-02-16T09:46:22.156Z,2.00
2023-02-16T09:48:50.074Z,1.80
2023-02-16T09:51:41.227Z,3.50
2023-02-16T09:54:23.106Z,4.60
2023-02-16T10:00:51.085Z,4.00
2023-02-16T10:03:45.965Z,3.50
2023-02-16T10:06:15.843Z,6.00
2023-02-16T10:08:50.070Z,5.70
2023-02-16T10:11:37.937Z,4.50
2023-02-16T10:14:12.357Z,4.80
2023-02-16T10:16:57.332Z,3.80
2023-02-16T10:19:33.542Z,2.40
2023-02-16T10:22:03.009Z,2.50
2023-02-16T10:24:31.234Z,4.80
2023-02-16T10:27:03.756Z,6.70
2023-02-16T10:29:30.874Z,4.40
2023-02-16T10:32:26.260Z,4.50
2023-02-16T10:35:10.749Z,3.60
2023-02-16T10:37:57.484Z,2.80
2023-02-16T10:40:43.731Z,6.10
2023-02-16T10:43:21.337Z,5.90
2023-02-16T10:45:53.758Z,3.70
2023-02-16T10:48:21.376Z,3.70
2023-02-16T10:51:02.716Z,3.70
2023-02-16T10:54:19.145Z,3.80
2023-02-16T10:56:53.699Z,4.30
2023-02-16T10:59:21.741Z,3.80
2023-02-16T11:01:54.606Z,4.20
2023-02-16T11:04:41.374Z,2.30
2023-02-16T11:07:17.794Z,11.10
2023-02-16T11:09:46.896Z,2.90
2023-02-16T11:12:17.263Z,3.50
2023-02-16T11:15:16.090Z,2.90
2023-02-16T11:17:52.215Z,3.30
2023-02-16T11:20:41.776Z,4.10
2023-02-16T11:23:23.505Z,3.00
2023-02-16T11:26:14.329Z,3.10
2023-02-16T11:28:46.080Z,2.70
2023-02-16T11:31:22.017Z,5.10
2023-02-16T11:34:31.302Z,6.00
2023-02-16T11:37:18.139Z,3.30
2023-02-16T11:40:15.390Z,2.50
2023-02-16T11:42:57.813Z,3.80
2023-02-16T11:45:33.652Z,4.50
2023-02-16T11:51:04.129Z,5.80
2023-02-16T11:53:33.578Z,5.50
2023-02-16T11:56:27.309Z,3.80
2023-02-16T11:59:06.957Z,3.00
2023-02-16T12:01:43.671Z,3.00
2023-02-16T12:04:29.684Z,3.40
2023-02-16T12:07:22.658Z,6.30
2023-02-16T12:10:08.099Z,2.20
2023-02-16T12:13:03.166Z,3.30
2023-02-16T12:16:31.679Z,2.90
2023-02-16T12:19:34.046Z,3.30
2023-02-16T12:22:39.908Z,3.10
2023-02-16T12:25:37.547Z,4.20
2023-02-16T12:28:20.177Z,4.60
2023-02-16T12:31:17.444Z,5.40
2023-02-16T12:34:03.507Z,5.80
2023-02-16T12:36:43.972Z,3.40
2023-02-16T12:39:33.937Z,3.70
2023-02-16T12:42:27.778Z,4.30
2023-02-16T12:44:57.002Z,2.50
2023-02-16T12:47:29.953Z,4.60
2023-02-16T12:50:28.512Z,2.40
2023-02-16T12:53:20.080Z,3.90
2023-02-16T12:55:50.693Z,3.70
2023-02-16T12:58:23.827Z,5.00
2023-02-16T13:00:59.599Z,5.50
2023-02-16T13:07:35.221Z,4.00
2023-02-16T13:10:45.265Z,3.90
2023-02-16T13:13:21.313Z,4.00
2023-02-16T13:16:23.921Z,5.90
2023-02-16T13:18:56.719Z,4.90
2023-02-16T13:21:50.850Z,6.50
2023-02-16T13:24:40.647Z,4.90
2023-02-16T13:27:49.090Z,7.00
2023-02-16T13:30:22.425Z,7.10
2023-02-16T13:33:02.069Z,4.00
2023-02-16T13:35:45.919Z,5.40
2023-02-16T13:38:29.648Z,2.40
2023-02-16T13:41:09.930Z,3.40
2023-02-16T13:43:47.072Z,5.10
2023-02-16T13:49:44.682Z,5.50
2023-02-16T13:52:49.744Z,6.00
2023-02-16T13:57:54.032Z,3.80
2023-02-16T14:00:42.476Z,4.10
2023-02-16T14:03:20.792Z,3.90
2023-02-16T14:05:55.689Z,3.20
2023-02-16T14:08:30.215Z,4.50
2023-02-16T14:11:03.622Z,2.10
2023-02-16T14:13:35.224Z,4.40
2023-02-16T14:19:05.107Z,3.60
2023-02-16T14:21:52.844Z,4.10
2023-02-16T14:24:33.222Z,4.30
2023-02-16T14:27:06.460Z,3.80
2023-02-16T14:29:53.756Z,5.30
2023-02-16T14:32:34.087Z,4.70
2023-02-16T14:35:07.886Z,5.30
2023-02-16T14:38:15.794Z,11.30
2023-02-16T14:40:51.763Z,6.70
2023-02-16T14:43:23.366Z,9.90
2023-02-16T14:46:02.500Z,8.00
2023-02-16T14:48:50.288Z,13.00
2023-02-16T14:51:36.029Z,13.10
2023-02-16T14:54:20.535Z,14.50
2023-02-16T14:56:50.652Z,12.30
2023-02-16T14:59:42.490Z,35.10
2023-02-16T15:02:37.665Z,16.70
2023-02-16T15:05:18.540Z,16.60
2023-02-16T15:08:02.611Z,16.60
2023-02-16T15:10:32.286Z,15.00
2023-02-16T15:12:59.680Z,12.70
2023-02-16T15:15:48.219Z,17.90
2023-02-16T15:18:19.199Z,16.90
2023-02-16T15:20:48.146Z,17.60
2023-02-16T15:23:22.584Z,17.10
2023-02-16T15:25:54.452Z,19.30
2023-02-16T15:28:25.725Z,21.30
2023-02-16T15:30:57.299Z,19.40
2023-02-16T15:33:24.316Z,60.60
2023-02-16T15:36:20.811Z,93.60
2023-02-16T15:38:52.871Z,89.20
2023-02-16T15:41:40.522Z,83.40
2023-02-16T15:44:34.156Z,80.50
2023-02-16T15:47:30.651Z,69.60
2023-02-16T15:50:32.360Z,63.00
2023-02-16T15:52:59.645Z,74.80
2023-02-16T15:55:28.102Z,112.00
2023-02-16T15:57:57.321Z,118.00
2023-02-16T16:00:26.163Z,118.90
2023-02-16T16:03:01.052Z,106.80
2023-02-16T16:05:45.686Z,94.50
2023-02-16T16:08:14.033Z,78.50
2023-02-16T16:10:42.176Z,70.80
2023-02-16T16:13:18.397Z,56.60
2023-02-16T16:15:48.082Z,59.40
2023-02-16T16:18:39.115Z,72.20
2023-02-16T16:21:28.744Z,74.50
2023-02-16T16:24:08.345Z,80.20
2023-02-16T16:26:50.971Z,76.40
2023-02-16T16:29:46.034Z,89.70
2023-02-16T16:32:19.141Z,79.50
2023-02-16T16:34:55.602Z,72.20
2023-02-16T16:37:36.760Z,73.20
2023-02-16T16:40:22.006Z,83.00
2023-02-16T16:43:06.254Z,87.30
2023-02-16T16:45:37.855Z,85.60
2023-02-16T16:48:09.943Z,97.40
2023-02-16T16:50:39.868Z,120.10
2023-02-16T16:53:29.722Z,125.50
2023-02-16T16:56:20.917Z,110.90
2023-02-16T16:58:51.038Z,120.50
2023-02-16T17:01:21.022Z,111.90
2023-02-16T17:03:49.073Z,110.70
2023-02-16T17:06:17.932Z,96.90
2023-02-16T17:08:45.153Z,86.90
2023-02-16T17:11:28.598Z,94.60
2023-02-16T17:13:56.569Z,92.80
2023-02-16T17:16:29.957Z,103.80
2023-02-16T17:18:57.334Z,99.20
2023-02-16T17:21:24.736Z,75.20
2023-02-16T17:23:53.887Z,83.70
2023-02-16T17:26:22.612Z,94.60
2023-02-16T17:28:50.302Z,70.30
2023-02-16T17:31:18.445Z,70.80
2023-02-16T17:33:47.731Z,83.10
2023-02-16T17:36:19.576Z,107.60
2023-02-16T17:38:53.774Z,87.40
2023-02-16T17:41:23.130Z,92.20
2023-02-16T17:43:51.588Z,88.10
2023-02-16T17:50:27.504Z,78.10
2023-02-16T17:52:57.322Z,69.00
2023-02-16T17:55:25.480Z,70.00
2023-02-16T17:58:20.867Z,76.20
2023-02-16T18:00:58.534Z,76.40
2023-02-16T18:03:25.999Z,64.30
2023-02-16T18:10:37.824Z,71.60
2023-02-16T18:13:06.121Z,74.90
2023-02-16T18:15:34.073Z,91.40
2023-02-16T18:18:04.235Z,88.80
2023-02-16T18:20:31.859Z,90.80
2023-02-16T18:23:00.498Z,90.90
2023-02-16T18:25:28.122Z,87.40
2023-02-16T18:27:56.565Z,84.70
2023-02-16T18:30:24.633Z,82.80
2023-02-16T18:32:56.268Z,76.10
2023-02-16T18:35:23.654Z,75.40
2023-02-16T18:37:52.553Z,74.90
2023-02-16T18:40:33.484Z,55.10
2023-02-16T18:43:00.605Z,45.30
2023-02-16T18:45:28.052Z,51.10
2023-02-16T18:47:56.715Z,30.90
2023-02-16T18:50:24.813Z,34.60
2023-02-16T18:52:55.303Z,41.20
2023-02-16T18:55:22.942Z,43.70
2023-02-16T18:57:51.392Z,51.10
2023-02-16T19:00:21.320Z,47.40
2023-02-16T19:02:58.497Z,53.20
2023-02-16T19:05:34.975Z,46.90
2023-02-16T19:08:07.796Z,43.60
2023-02-16T19:10:35.944Z,41.20
2023-02-16T19:13:09.994Z,54.30
2023-02-16T19:15:56.681Z,42.80
2023-02-16T19:18:28.700Z,38.80
2023-02-16T19:21:10.288Z,35.10
2023-02-16T19:23:38.218Z,50.50
2023-02-16T19:26:10.748Z,45.20
2023-02-16T19:28:42.557Z,51.20
2023-02-16T19:31:19.331Z,51.00
2023-02-16T19:33:46.653Z,49.00
2023-02-16T19:36:14.136Z,59.50
2023-02-16T19:38:44.010Z,49.90
2023-02-16T19:43:01.767Z,50.60
2023-02-16T19:45:37.038Z,56.80
2023-02-16T19:48:06.765Z,64.20
2023-02-16T19:50:35.373Z,61.30
2023-02-16T19:53:02.562Z,66.20
2023-02-16T19:55:32.575Z,71.90
2023-02-16T19:58:00.362Z,66.00
2023-02-16T20:00:29.539Z,58.10
2023-02-16T20:02:56.701Z,45.90
2023-02-16T20:05:23.751Z,38.90
2023-02-16T20:07:53.232Z,31.80
2023-02-16T20:10:21.917Z,34.70
2023-02-16T20:12:49.358Z,35.00
2023-02-16T20:15:25.351Z,34.70
2023-02-16T20:17:55.841Z,33.20
2023-02-16T20:20:35.210Z,39.60
2023-02-16T20:23:05.451Z,31.70
2023-02-16T20:25:34.198Z,44.50
2023-02-16T20:28:02.687Z,45.10
2023-02-16T20:30:30.295Z,42.90
2023-02-16T20:32:58.622Z,43.20
2023-02-16T20:35:25.827Z,39.60
2023-02-16T20:37:54.254Z,37.90
2023-02-16T20:40:24.598Z,38.40
2023-02-16T20:42:51.844Z,40.70
2023-02-16T20:45:21.991Z,47.60
2023-02-16T20:47:52.539Z,36.90
2023-02-16T20:50:19.949Z,36.40
2023-02-16T20:52:47.197Z,34.70
2023-02-16T20:55:15.314Z,39.40
2023-02-16T20:57:42.407Z,32.90
2023-02-16T21:00:15.496Z,31.70
2023-02-16T21:02:42.644Z,27.50
2023-02-16T21:05:10.336Z,22.60
2023-02-16T21:07:38.801Z,31.80
2023-02-16T21:10:10.349Z,24.00
2023-02-16T21:12:37.429Z,28.30
2023-02-16T21:15:05.077Z,26.10
2023-02-16T21:17:32.201Z,32.80
2023-02-16T21:19:59.165Z,30.50
2023-02-16T21:22:26.044Z,30.40
2023-02-16T21:24:53.917Z,28.30
2023-02-16T21:27:21.092Z,24.20
2023-02-16T21:29:48.162Z,25.80
2023-02-16T21:32:15.202Z,27.40
2023-02-16T21:34:43.862Z,17.10
2023-02-16T21:37:10.771Z,30.90
2023-02-16T21:39:58.879Z,28.50
2023-02-16T21:42:25.757Z,22.80
2023-02-16T21:45:11.907Z,27.50
2023-02-16T21:47:59.454Z,21.80
2023-02-16T21:50:28.009Z,20.80
2023-02-16T21:52:55.396Z,19.50
2023-02-16T21:55:41.291Z,20.30
2023-02-16T21:58:10.220Z,18.80
2023-02-16T22:00:39.549Z,19.60
2023-02-16T22:03:08.027Z,19.10
2023-02-16T22:05:35.700Z,20.60
2023-02-16T22:08:02.928Z,23.60
2023-02-16T22:10:29.952Z,26.80
2023-02-16T22:12:57.070Z,26.40
2023-02-16T22:15:34.918Z,20.40
2023-02-16T22:18:05.947Z,21.00
2023-02-16T22:20:35.425Z,18.50
2023-02-16T22:23:03.379Z,24.30
2023-02-16T22:25:30.293Z,18.30
2023-02-16T22:27:59.081Z,22.80
2023-02-16T22:30:26.157Z,27.10
2023-02-16T22:32:57.246Z,17.40
2023-02-16T22:35:24.500Z,19.40
2023-02-16T22:37:51.516Z,20.60
2023-02-16T22:40:18.570Z,18.50
2023-02-16T22:42:45.455Z,17.80
2023-02-16T22:45:12.718Z,16.20
2023-02-16T22:47:40.071Z,20.10
2023-02-16T22:50:07.586Z,23.10
2023-02-16T22:52:36.574Z,23.10
2023-02-16T22:55:05.190Z,23.30
2023-02-16T22:57:39.940Z,19.10
2023-02-16T23:02:39.182Z,21.40
2023-02-16T23:05:08.044Z,18.70
2023-02-16T23:07:35.773Z,17.00
2023-02-16T23:10:07.453Z,19.00
2023-02-16T23:12:34.749Z,22.30
2023-02-16T23:15:01.645Z,20.30
2023-02-16T23:17:29.054Z,18.40
2023-02-16T23:19:58.312Z,16.30
2023-02-16T23:22:26.383Z,17.80
2023-02-16T23:25:13.344Z,16.50
2023-02-16T23:27:40.884Z,17.10
2023-02-16T23:30:08.338Z,18.60
2023-02-16T23:32:36.494Z,15.50
2023-02-16T23:35:04.137Z,15.10
2023-02-16T23:37:33.568Z,21.90
2023-02-16T23:40:00.482Z,18.80
2023-02-16T23:42:28.082Z,20.60
2023-02-16T23:44:55.451Z,21.00
2023-02-16T23:47:23.326Z,23.80
2023-02-16T23:49:50.405Z,17.30
2023-02-16T23:52:18.220Z,20.40
2023-02-16T23:54:45.090Z,25.30
2023-02-16T23:57:12.598Z,19.40
2023-02-16T23:59:39.902Z,19.10
